• Join FlightAware (Why Join?)
  • Login
  • US Flag 
 
10:59PM EST


 

Airport Tracker/Info


-or-


 

Live Flight TrackerFlight Track Log ✈ UPS2774 ✈ 21-Nov-2013 ✈ KSDF - KIAH

Flight Track Log - Related Links

Times and Time Zones

All times are in EST time to prevent confusion due to time zone crossing. See the UPS2774 flight status page for this flight to view local times or setup timezone preferences in your user account.

Time Position Orientation Groundspeed Altitude Reporting Facility
EST Latitude Longitude Course Direction KTS MPH feet Rate Location/Type
04:53PM 38.0667 -85.7500 227° Southwest 244 281 5,000  Level Louisville TRACON
04:54PM 38.0758 -85.8525 277° West 255 293 8,400 2,520 Climbing Indianapolis Center
04:55PM 38.0736 -85.9433 268° West 258 297 10,800 2,700 Climbing Indianapolis Center
04:56PM 38.0111 -86.0483 233° Southwest 311 358 14,000 3,180 Climbing Indianapolis Center
04:57PM 37.8135 -86.2240 227° Southwest  Level Estimated
04:57PM 37.9400 -86.1258 221° Southwest 338 389 17,400  Level Indianapolis Center
04:58PM 37.7411 -86.3209 227° Southwest  Level Estimated
04:58PM 37.8625 -86.2025 218° Southwest 350 403 20,100  Level Indianapolis Center
04:59PM 37.7819 -86.2817 218° Southwest 366 421 22,600 2,400 Climbing Indianapolis Center
05:00PM 37.6967 -86.3675 219° Southwest 382 440 25,200 2,280 Climbing Indianapolis Center
05:01PM 37.6086 -86.4542 218° Southwest 395 455 27,400 2,160 Climbing Indianapolis Center
05:02PM 37.5039 -86.5569 218° Southwest 404 465 29,700 2,100 Climbing Indianapolis Center
05:03PM 37.4128 -86.6469 218° Southwest 411 473 31,800 1,080 Climbing Indianapolis Center
05:04PM 37.3222 -86.7367 218° Southwest 412 474 32,000 60 Climbing Indianapolis Center
05:05PM 37.2303 -86.8250 217° Southwest 412 474 32,000 360 Level Indianapolis Center
05:06PM 37.1383 -86.9139 218° Southwest 415 478 32,800 1,200 Climbing Indianapolis Center
05:07PM 37.0803 -86.9725 219° Southwest 407 468 34,000 720 Climbing Memphis Center
05:08PM 36.9942 -87.0553 218° Southwest 393 452 34,000  Level Memphis Center
05:09PM 36.9086 -87.1381 218° Southwest 387 445 34,000  Level Memphis Center
05:10PM 36.8225 -87.2203 217° Southwest 388 447 34,000  Level Memphis Center
05:11PM 36.7361 -87.3039 218° Southwest 391 450 34,000  Level Memphis Center
05:12PM 36.6489 -87.3872 217° Southwest 392 451 34,000  Level Memphis Center
05:13PM 36.5467 -87.4853 218° Southwest 395 455 34,000  Level Memphis Center
05:14PM 36.4583 -87.5681 217° Southwest 396 456 34,000  Level Memphis Center
05:15PM 36.3703 -87.6508 217° Southwest 396 456 34,000  Level Memphis Center
05:16PM 36.2836 -87.7339 218° Southwest 393 452 34,000  Level Memphis Center
05:17PM 36.1950 -87.8169 217° Southwest 394 453 34,000  Level Memphis Center
05:18PM 36.1075 -87.9000 217° Southwest 395 455 34,000  Level Memphis Center
05:19PM 36.0047 -87.9953 217° Southwest 393 452 34,000  Level Memphis Center
05:20PM 35.9158 -88.0783 217° Southwest 395 455 34,000  Level Memphis Center
05:21PM 35.8311 -88.1569 217° Southwest 397 457 34,000  Level Memphis Center
05:22PM 35.7428 -88.2375 217° Southwest 394 453 34,000  Level Memphis Center
05:24PM 35.6544 -88.3208 217° Southwest 396 456 34,000  Level Memphis Center
05:25PM 35.5658 -88.4022 217° Southwest 395 455 34,000  Level Memphis Center
05:26PM 35.4586 -88.5008 217° Southwest 398 458 34,000  Level Memphis Center
05:27PM 35.3650 -88.5856 216° Southwest 401 461 34,000  Level Memphis Center
05:28PM 35.2756 -88.6678 217° Southwest 399 459 34,000  Level Memphis Center
05:29PM 35.1847 -88.7503 217° Southwest 400 460 34,000  Level Memphis Center
05:30PM 35.0944 -88.8322 217° Southwest 401 461 34,000  Level Memphis Center
05:31PM 35.0025 -88.9158 217° Southwest 404 465 34,000  Level Memphis Center
05:32PM 34.9106 -88.9992 217° Southwest 406 467 34,000  Level Memphis Center
05:33PM 34.8178 -89.0825 216° Southwest 408 470 34,000  Level Memphis Center
05:34PM 34.7242 -89.1669 217° Southwest 411 473 34,000  Level Memphis Center
05:35PM 34.6144 -89.2644 216° Southwest 412 474 34,000  Level Memphis Center
05:36PM 34.5189 -89.3492 216° Southwest 416 479 34,000  Level Memphis Center
05:37PM 34.4256 -89.4347 217° Southwest 415 478 34,000  Level Memphis Center
05:38PM 34.3306 -89.5181 216° Southwest 416 479 34,000  Level Memphis Center
05:39PM 34.2361 -89.6014 216° Southwest 414 476 34,000  Level Memphis Center
05:40PM 34.1425 -89.6850 216° Southwest 414 476 34,000  Level Memphis Center
05:41PM 34.0492 -89.7672 216° Southwest 411 473 34,000  Level Memphis Center
05:42PM 33.9561 -89.8497 216° Southwest 410 472 34,000  Level Memphis Center
05:43PM 33.8625 -89.9317 216° Southwest 411 473 34,000  Level Memphis Center
05:44PM 33.7594 -90.0208 216° Southwest 412 474 34,000  Level Memphis Center
05:45PM 33.6669 -90.1019 216° Southwest 414 476 34,000  Level Memphis Center
05:46PM 33.5736 -90.1822 216° Southwest 416 479 34,000  Level Memphis Center
05:47PM 33.4622 -90.2797 216° Southwest 418 481 34,000  Level Memphis Center
05:48PM 33.3753 -90.3694 221° Southwest 417 480 34,000  Level Memphis Center
05:49PM 33.2881 -90.4600 221° Southwest 420 483 34,000  Level Memphis Center
05:50PM 33.2008 -90.5492 221° Southwest 418 481 34,000  Level Memphis Center
05:51PM 33.1147 -90.6406 222° Southwest 418 481 34,000  Level Memphis Center
05:52PM 33.0089 -90.7472 220° Southwest 420 483 34,000  Level Memphis Center
05:54PM 32.9214 -90.8378 221° Southwest 419 482 34,000  Level Memphis Center
05:55PM 32.8347 -90.9269 221° Southwest 418 481 34,000  Level Memphis Center
05:56PM 32.7475 -91.0150 220° Southwest 415 478 34,000  Level Memphis Center
05:57PM 32.6433 -91.1228 221° Southwest 417 480 34,000  Level Memphis Center
05:58PM 32.5539 -91.2108 220° Southwest 419 482 34,000  Level Memphis Center
05:59PM 32.4667 -91.3006 221° Southwest 418 481 34,000  Level Memphis Center
06:00PM 32.3772 -91.3906 220° Southwest 423 487 34,000  Level Memphis Center
06:01PM 32.2703 -91.4969 220° Southwest 425 489 34,000  Level Houston Center
06:02PM 32.1817 -91.5875 221° Southwest 424 488 34,000  Level Houston Center
06:03PM 32.0914 -91.6772 220° Southwest 423 487 34,000  Level Houston Center
06:04PM 31.9828 -91.7844 220° Southwest 424 488 34,000  Level Houston Center
06:05PM 31.8933 -91.8750 221° Southwest 425 489 34,000  Level Houston Center
06:06PM 31.8031 -91.9633 220° Southwest 423 487 34,000  Level Houston Center
06:07PM 31.7147 -92.0519 220° Southwest 425 489 34,000  Level Houston Center
06:08PM 31.6253 -92.1406 220° Southwest 423 487 34,000  Level Houston Center
06:09PM 31.5158 -92.2461 219° Southwest 425 489 34,000  Level Houston Center
06:10PM 31.4314 -92.3422 224° Southwest 425 489 34,000  Level Houston Center
06:11PM 31.3633 -92.4561 235° Southwest 427 491 34,000  Level Houston Center
06:12PM 31.2961 -92.5683 235° Southwest 425 489 34,000  Level Houston Center
06:13PM 31.2297 -92.6817 236° Southwest 423 487 34,000  Level Houston Center
06:14PM 31.1481 -92.8164 235° Southwest 423 487 34,000  Level Houston Center
06:15PM 31.0800 -92.9292 235° Southwest 426 490 34,000  Level Houston Center
06:16PM 31.0122 -93.0414 235° Southwest 425 489 34,000  Level Houston Center
06:17PM 30.9439 -93.1544 235° Southwest 427 491 34,000 -60 Level Houston Center
06:18PM 30.8753 -93.2664 234° Southwest 428 493 33,900 -660 Descending Houston Center
06:20PM 30.8092 -93.3733 234° Southwest 412 474 32,700 -1,620 Descending Houston Center
06:21PM 30.7364 -93.4936 235° Southwest 385 443 30,600 -1,800 Descending Houston Center
06:22PM 30.6769 -93.5900 234° Southwest 375 432 29,000 -2,100 Descending Houston Center
06:23PM 30.6197 -93.6847 235° Southwest 365 420 26,300 -3,300 Descending Houston Center
06:24PM 30.5556 -93.7869 234° Southwest 387 445 22,300 -2,880 Descending Houston Center
06:25PM 30.4750 -93.9189 235° Southwest 417 480 20,400 -1,740 Descending Houston Center
06:26PM 30.4111 -94.0217 234° Southwest 401 461 18,800 -1,500 Descending Houston Center
06:26PM 30.3647 -94.0953 234° Southwest 391 450 17,800 -1,380 Descending Houston Center
06:27PM 30.3478 -94.1222 234° Southwest 392 451 17,400 -2,340 Descending Houston Center
06:28PM 30.2850 -94.2222 234° Southwest 347 399 14,700 -2,520 Descending Houston Center
06:28PM 30.2897 -94.2150 53° Northeast 362 417 14,800 -1,680 Climbing Houston Center
06:29PM 30.2356 -94.3161 238° Southwest 325 374 13,000 -1,560 Descending Houston Center
06:29PM 30.2383 -94.3022 77° East 332 382 13,200 -1,020 Climbing Houston Center
06:30PM 30.2117 -94.4158 255° West 315 362 12,000 -1,200 Descending Houston Center
06:30PM 30.2111 -94.4200 261° West 315 362 12,000  Level Houston Center
06:31PM 30.1911 -94.5100 256° West 319 367 12,000  Level Houston Center
06:31PM 30.1869 -94.5281 255° West 320 368 12,000 -120 Level Houston Center
06:32PM 30.1667 -94.6200 256° West 322 371 11,900  Descending Houston Center
06:32PM 30.1703 -94.6100 67° East 320 368 12,000 -1,080 Climbing Houston Center
06:33PM 30.1444 -94.7267 256° West 313 360 10,700 -1,140 Descending Houston Center
06:34PM 30.1272 -94.7992 255° West 280 322 9,900 -1,080 Descending Houston Center
06:34PM 30.1253 -94.8133 261° West 285 328 9,600 -1,380 Descending Houston Center
06:35PM 30.1083 -94.8886 255° West 277 319 8,500 -1,200 Descending Houston Center
06:35PM 30.1064 -94.8989 258° West 277 319 8,400 -1,320 Descending Houston Center
06:36PM 30.1058 -94.9733 270° West 272 313 7,200 -1,380 Descending Houston Center
06:36PM 30.1058 -94.9847 270° West 268 308 7,000 -1,200 Descending Houston Center
06:37PM 30.1061 -95.0653 270° West 269 310 6,000 -1,020 Descending Houston Center
06:37PM 30.1061 -95.0703 270° West 269 310 6,000  Level Houston Center
06:38PM 30.1056 -95.1744 270° West 272 313 6,000  Level Houston Center
06:39PM 30.1061 -95.2464 271° West 245 282 6,000  Level Houston Center
06:39PM 30.1064 -95.2572 272° West 264 304 6,000  Level Houston Center
06:40PM 30.1069 -95.3236 271° West 234 269 6,000  Level Houston Center
06:40PM 30.1061 -95.3300 261° West 238 274 6,000  Level Houston Center
06:41PM 30.1069 -95.3936 271° West 231 266 6,000  Level Houston Center
06:41PM 30.1072 -95.4042 272° West 232 267 6,000 -900 Level Houston Center
06:42PM 30.1061 -95.4758 269° West 230 265 5,000 -1,080 Descending Houston Center
06:42PM 30.1067 -95.4783 284° West 232 267 4,900 -1,140 Descending Houston Center
06:43PM 30.1078 -95.5408 271° West 221 254 4,000 -1,260 Descending Houston Center
06:43PM 30.1067 -95.5628 267° West 222 255 3,600 -1,020 Descending Houston Center
06:44PM 30.0992 -95.6094 259° West 214 246 3,000 -600 Descending Houston Center
06:44PM 30.0961 -95.6300 260° West 216 249 3,000  Level Houston Center
06:45PM 30.0886 -95.6806 260° West 217 250 3,000  Level Houston Center
06:45PM 30.0839 -95.6967 251° West 214 246 3,000  Level Houston Center
06:46PM 30.0367 -95.7086 192° South 200 230 3,000  Level Houston Center
06:46PM 30.0261 -95.7081 177° South 214 246 3,000  Level Houston Center
06:47PM 30.0044 -95.6761 128° Southeast 228 262 3,000 60 Level Houston Center
06:47PM 30.0050 -95.6564 88° East 232 267 3,100  Climbing Houston Center
06:48PM 30.0067 -95.6083 88° East 206 237 3,000 -120 Descending Houston Center
06:49PM 30.0064 -95.5911 91° East 208 239 3,000  Level Houston Center
06:49PM 30.0067 -95.5383 90° East 211 243 3,000 -420 Level Houston Center
06:50PM 30.0064 -95.5092 91° East 210 242 2,600 -1,020 Descending Houston Center
06:50PM 30.0069 -95.4708 89° East 204 235 2,000 -1,020 Descending Houston Center
06:51PM 30.0069 -95.4450 90° East 208 239 1,600 -900 Descending Houston Center
06:51PM 30.0064 -95.4178 91° East 141 162 1,100 -780 Descending Houston Center
06:52PM 30.0072 -95.3981 87° East 174 200 800 -720 Descending Houston Center
06:52PM 30.0064 -95.3719 92° East 140 161 400 -420 Descending Houston Center
06:53PM 30.0067 -95.3467 89° East 158 182 400  Level Houston Center